Carmo do Rio Verde, Brazil
Current Conditions -  °F | °C
As of 4:00 AM on Thursday 29 Jan 2015 (Local Time) from SBAN Reporting Station
Broken Clouds Broken Clouds  
Wind Chill: 21°   Ceiling: 10000
Heat Index: 21°   Visibility: 6mi
Dew Point: 17°   Wind: 6mph
Humidity: 78%   Direction: 150°SSE
Pressure: 30.09"   Gusts: NA
Location:  15.35°S, 49.71°W
Report Text: SBAN 290600Z 15005KT 9999 FEW030 BKN100 21/17 Q1019
Loading
Personal Weather Stations






























Interactive Weather Map New forecast layout! Learn more

10-Day Weather Forecast

Advertisements
Track Severe Weather on mobile